Cordova, Tennessee
Current Conditions -  °F | °C
As of 10:50 AM on Sunday 23 Nov 2014 (Local Time) from KOLV Reporting Station
Moderate Rain Moderate Rain  
Wind Chill: 57°   Ceiling: 600
Heat Index: 57°   Visibility: 3mi
Dew Point: 57°   Wind: 12mph
Humidity: 100%   Direction: 130°SE
Pressure: 29.59"   Gusts: NA
Location:  35.16°N, 89.78°W
Report Text: KOLV 231650Z 13010KT 3SM RA BR BKN006 OVC012 14/14 A2959 RMK PRESFR
Loading
Personal Weather Stations






























Interactive Weather Map New forecast layout! Learn more

10-Day Weather Forecast

Advertisements
Track Severe Weather on mobile